sensor_id;sensor_type;location;lat;lon;timestamp;temperature;humidity
23156;DHT22;11746;50.876;4.246;2023-03-14T00:02:13;11.00;99.90
23156;DHT22;11746;50.876;4.246;2023-03-14T00:04:41;10.90;99.90
23156;DHT22;11746;50.876;4.246;2023-03-14T00:07:10;10.90;99.90
23156;DHT22;11746;50.876;4.246;2023-03-14T00:09:39;10.90;99.90
23156;DHT22;11746;50.876;4.246;2023-03-14T00:12:05;10.90;99.90
23156;DHT22;11746;50.876;4.246;2023-03-14T00:14:32;10.80;99.90
23156;DHT22;11746;50.876;4.246;2023-03-14T00:16:58;10.80;99.90
23156;DHT22;11746;50.876;4.246;2023-03-14T00:19:23;10.80;99.90
23156;DHT22;11746;50.876;4.246;2023-03-14T00:21:49;10.80;99.90
23156;DHT22;11746;50.876;4.246;2023-03-14T00:24:15;10.70;99.90
23156;DHT22;11746;50.876;4.246;2023-03-14T00:26:43;10.70;99.90
23156;DHT22;11746;50.876;4.246;2023-03-14T00:29:11;10.70;99.90
23156;DHT22;11746;50.876;4.246;2023-03-14T00:31:36;10.80;99.90
23156;DHT22;11746;50.876;4.246;2023-03-14T00:34:02;10.70;99.90
23156;DHT22;11746;50.876;4.246;2023-03-14T00:36:28;10.60;99.90
23156;DHT22;11746;50.876;4.246;2023-03-14T00:38:54;10.60;99.90
23156;DHT22;11746;50.876;4.246;2023-03-14T00:41:22;10.60;99.90
23156;DHT22;11746;50.876;4.246;2023-03-14T00:43:49;10.60;99.90
23156;DHT22;11746;50.876;4.246;2023-03-14T00:46:15;10.60;99.90
23156;DHT22;11746;50.876;4.246;2023-03-14T00:48:41;10.60;99.90
23156;DHT22;11746;50.876;4.246;2023-03-14T00:51:09;10.60;99.90
23156;DHT22;11746;50.876;4.246;2023-03-14T00:53:38;10.60;99.90
23156;DHT22;11746;50.876;4.246;2023-03-14T00:56:10;10.60;99.90
23156;DHT22;11746;50.876;4.246;2023-03-14T00:58:36;10.50;99.90
23156;DHT22;11746;50.876;4.246;2023-03-14T01:01:09;10.60;99.90
23156;DHT22;11746;50.876;4.246;2023-03-14T01:03:35;10.50;99.90
23156;DHT22;11746;50.876;4.246;2023-03-14T01:06:16;10.50;99.90
23156;DHT22;11746;50.876;4.246;2023-03-14T01:08:45;10.50;99.90
23156;DHT22;11746;50.876;4.246;2023-03-14T01:11:15;10.50;99.90
23156;DHT22;11746;50.876;4.246;2023-03-14T01:13:44;10.50;99.90
23156;DHT22;11746;50.876;4.246;2023-03-14T01:16:11;10.40;99.90
23156;DHT22;11746;50.876;4.246;2023-03-14T01:18:41;10.50;99.90
23156;DHT22;11746;50.876;4.246;2023-03-14T01:21:25;10.50;99.90
23156;DHT22;11746;50.876;4.246;2023-03-14T01:23:54;10.50;99.90
23156;DHT22;11746;50.876;4.246;2023-03-14T01:26:24;10.50;99.90
23156;DHT22;11746;50.876;4.246;2023-03-14T01:28:52;10.50;99.90
23156;DHT22;11746;50.876;4.246;2023-03-14T01:31:18;10.50;99.90
23156;DHT22;11746;50.876;4.246;2023-03-14T01:33:46;10.50;99.90
23156;DHT22;11746;50.876;4.246;2023-03-14T01:36:12;10.60;99.90
23156;DHT22;11746;50.876;4.246;2023-03-14T01:38:45;10.60;99.90
23156;DHT22;11746;50.876;4.246;2023-03-14T01:41:22;10.50;99.90
23156;DHT22;11746;50.876;4.246;2023-03-14T01:43:48;10.50;99.90
23156;DHT22;11746;50.876;4.246;2023-03-14T01:46:17;10.40;99.90
23156;DHT22;11746;50.876;4.246;2023-03-14T01:54:40;10.40;99.90
23156;DHT22;11746;50.876;4.246;2023-03-14T01:57:17;10.30;99.90
23156;DHT22;11746;50.876;4.246;2023-03-14T01:59:50;10.30;99.90
23156;DHT22;11746;50.876;4.246;2023-03-14T02:02:18;10.30;99.90
23156;DHT22;11746;50.876;4.246;2023-03-14T02:04:44;10.30;99.90
23156;DHT22;11746;50.876;4.246;2023-03-14T02:09:44;10.30;99.90
23156;DHT22;11746;50.876;4.246;2023-03-14T02:12:11;10.20;99.90
23156;DHT22;11746;50.876;4.246;2023-03-14T02:14:39;10.00;99.90
23156;DHT22;11746;50.876;4.246;2023-03-14T02:17:07;10.00;99.90
23156;DHT22;11746;50.876;4.246;2023-03-14T02:19:40;9.90;99.90
23156;DHT22;11746;50.876;4.246;2023-03-14T02:22:10;9.90;99.90
23156;DHT22;11746;50.876;4.246;2023-03-14T02:27:23;9.80;99.90
23156;DHT22;11746;50.876;4.246;2023-03-14T02:29:59;9.80;99.90
23156;DHT22;11746;50.876;4.246;2023-03-14T02:32:28;9.70;99.90
23156;DHT22;11746;50.876;4.246;2023-03-14T02:34:57;9.70;99.90
23156;DHT22;11746;50.876;4.246;2023-03-14T02:37:27;9.80;99.90
23156;DHT22;11746;50.876;4.246;2023-03-14T02:39:55;9.80;99.90
23156;DHT22;11746;50.876;4.246;2023-03-14T02:42:24;9.80;99.90
23156;DHT22;11746;50.876;4.246;2023-03-14T02:47:41;9.80;99.90
23156;DHT22;11746;50.876;4.246;2023-03-14T02:50:11;9.90;99.90
23156;DHT22;11746;50.876;4.246;2023-03-14T02:52:37;10.00;99.90
23156;DHT22;11746;50.876;4.246;2023-03-14T02:55:04;10.00;99.90
23156;DHT22;11746;50.876;4.246;2023-03-14T02:57:32;10.00;99.90
23156;DHT22;11746;50.876;4.246;2023-03-14T03:00:01;10.00;99.90
23156;DHT22;11746;50.876;4.246;2023-03-14T03:02:32;10.00;99.90
23156;DHT22;11746;50.876;4.246;2023-03-14T03:04:57;10.00;99.90
23156;DHT22;11746;50.876;4.246;2023-03-14T03:07:23;10.00;99.90
23156;DHT22;11746;50.876;4.246;2023-03-14T03:09:49;10.00;99.90
23156;DHT22;11746;50.876;4.246;2023-03-14T03:12:15;10.10;99.90
23156;DHT22;11746;50.876;4.246;2023-03-14T03:14:43;10.00;99.90
23156;DHT22;11746;50.876;4.246;2023-03-14T03:17:09;10.00;99.90
23156;DHT22;11746;50.876;4.246;2023-03-14T03:19:37;10.00;99.90
23156;DHT22;11746;50.876;4.246;2023-03-14T03:22:03;10.10;99.90
23156;DHT22;11746;50.876;4.246;2023-03-14T03:24:29;10.00;99.90
23156;DHT22;11746;50.876;4.246;2023-03-14T03:26:54;10.10;99.90
23156;DHT22;11746;50.876;4.246;2023-03-14T03:29:20;10.20;99.90
23156;DHT22;11746;50.876;4.246;2023-03-14T03:31:48;10.10;99.90
23156;DHT22;11746;50.876;4.246;2023-03-14T03:34:18;10.10;99.90
23156;DHT22;11746;50.876;4.246;2023-03-14T03:36:44;10.20;99.90
23156;DHT22;11746;50.876;4.246;2023-03-14T03:39:12;10.20;99.90
23156;DHT22;11746;50.876;4.246;2023-03-14T03:41:38;10.20;99.90
23156;DHT22;11746;50.876;4.246;2023-03-14T03:44:03;10.10;99.90
23156;DHT22;11746;50.876;4.246;2023-03-14T03:46:31;10.20;99.90
23156;DHT22;11746;50.876;4.246;2023-03-14T03:48:58;10.10;99.90
23156;DHT22;11746;50.876;4.246;2023-03-14T03:51:26;10.10;99.90
23156;DHT22;11746;50.876;4.246;2023-03-14T03:53:56;10.20;99.90
23156;DHT22;11746;50.876;4.246;2023-03-14T03:56:24;10.20;99.90
23156;DHT22;11746;50.876;4.246;2023-03-14T03:58:54;10.20;99.90
23156;DHT22;11746;50.876;4.246;2023-03-14T04:01:22;10.20;99.90
23156;DHT22;11746;50.876;4.246;2023-03-14T04:03:50;10.20;99.90
23156;DHT22;11746;50.876;4.246;2023-03-14T04:06:18;10.10;99.90
23156;DHT22;11746;50.876;4.246;2023-03-14T04:08:44;10.20;99.90
23156;DHT22;11746;50.876;4.246;2023-03-14T04:11:12;10.20;99.90
23156;DHT22;11746;50.876;4.246;2023-03-14T04:13:40;10.20;99.90
23156;DHT22;11746;50.876;4.246;2023-03-14T04:16:14;10.20;99.90
23156;DHT22;11746;50.876;4.246;2023-03-14T04:18:40;10.20;99.90
23156;DHT22;11746;50.876;4.246;2023-03-14T04:21:06;10.20;99.90
23156;DHT22;11746;50.876;4.246;2023-03-14T04:23:32;10.10;99.90
23156;DHT22;11746;50.876;4.246;2023-03-14T04:25:58;10.20;99.90
23156;DHT22;11746;50.876;4.246;2023-03-14T04:28:29;10.30;99.90
23156;DHT22;11746;50.876;4.246;2023-03-14T04:30:54;10.20;99.90
23156;DHT22;11746;50.876;4.246;2023-03-14T04:33:20;10.20;99.90
23156;DHT22;11746;50.876;4.246;2023-03-14T04:35:46;10.20;99.90
23156;DHT22;11746;50.876;4.246;2023-03-14T04:38:12;10.10;99.90
23156;DHT22;11746;50.876;4.246;2023-03-14T04:40:42;10.10;99.90
23156;DHT22;11746;50.876;4.246;2023-03-14T04:43:12;10.10;99.90
23156;DHT22;11746;50.876;4.246;2023-03-14T04:45:41;10.10;99.90
23156;DHT22;11746;50.876;4.246;2023-03-14T04:48:07;10.10;99.90
23156;DHT22;11746;50.876;4.246;2023-03-14T04:50:33;10.10;99.90
23156;DHT22;11746;50.876;4.246;2023-03-14T04:52:59;10.10;99.90
23156;DHT22;11746;50.876;4.246;2023-03-14T04:55:27;10.10;99.90
23156;DHT22;11746;50.876;4.246;2023-03-14T04:57:52;10.10;99.90
23156;DHT22;11746;50.876;4.246;2023-03-14T05:00:18;10.10;99.90
23156;DHT22;11746;50.876;4.246;2023-03-14T05:02:44;10.10;99.90
23156;DHT22;11746;50.876;4.246;2023-03-14T05:05:10;10.10;99.90
23156;DHT22;11746;50.876;4.246;2023-03-14T05:07:36;10.20;99.90
23156;DHT22;11746;50.876;4.246;2023-03-14T05:10:02;10.20;99.90
23156;DHT22;11746;50.876;4.246;2023-03-14T05:12:27;10.30;99.90
23156;DHT22;11746;50.876;4.246;2023-03-14T05:14:55;10.10;99.90
23156;DHT22;11746;50.876;4.246;2023-03-14T05:17:21;10.10;99.90
23156;DHT22;11746;50.876;4.246;2023-03-14T05:19:47;10.00;99.90
23156;DHT22;11746;50.876;4.246;2023-03-14T05:22:12;10.10;99.90
23156;DHT22;11746;50.876;4.246;2023-03-14T05:24:38;10.10;99.90
23156;DHT22;11746;50.876;4.246;2023-03-14T05:27:04;10.10;99.90
23156;DHT22;11746;50.876;4.246;2023-03-14T05:29:32;10.10;99.90
23156;DHT22;11746;50.876;4.246;2023-03-14T05:31:58;10.10;99.90
23156;DHT22;11746;50.876;4.246;2023-03-14T05:34:23;10.10;99.90
23156;DHT22;11746;50.876;4.246;2023-03-14T05:36:49;10.10;99.90
23156;DHT22;11746;50.876;4.246;2023-03-14T05:39:19;10.00;99.90
23156;DHT22;11746;50.876;4.246;2023-03-14T05:41:45;10.00;99.90
23156;DHT22;11746;50.876;4.246;2023-03-14T05:44:10;10.00;99.90
23156;DHT22;11746;50.876;4.246;2023-03-14T05:46:36;10.10;99.90
23156;DHT22;11746;50.876;4.246;2023-03-14T05:49:02;10.10;99.90
23156;DHT22;11746;50.876;4.246;2023-03-14T05:51:29;10.00;99.90
23156;DHT22;11746;50.876;4.246;2023-03-14T05:53:55;10.10;99.90
23156;DHT22;11746;50.876;4.246;2023-03-14T05:56:23;10.10;99.90
23156;DHT22;11746;50.876;4.246;2023-03-14T05:58:48;10.00;99.90
23156;DHT22;11746;50.876;4.246;2023-03-14T06:01:14;10.10;99.90
23156;DHT22;11746;50.876;4.246;2023-03-14T06:03:40;10.10;99.90
23156;DHT22;11746;50.876;4.246;2023-03-14T06:06:06;10.10;99.90
23156;DHT22;11746;50.876;4.246;2023-03-14T06:08:31;10.10;99.90
23156;DHT22;11746;50.876;4.246;2023-03-14T06:11:01;10.10;99.90
23156;DHT22;11746;50.876;4.246;2023-03-14T06:13:27;10.10;99.90
23156;DHT22;11746;50.876;4.246;2023-03-14T06:15:55;10.20;99.90
23156;DHT22;11746;50.876;4.246;2023-03-14T06:18:21;10.10;99.90
23156;DHT22;11746;50.876;4.246;2023-03-14T06:20:47;10.20;99.90
23156;DHT22;11746;50.876;4.246;2023-03-14T06:23:12;10.20;99.90
23156;DHT22;11746;50.876;4.246;2023-03-14T06:25:38;10.20;99.90
23156;DHT22;11746;50.876;4.246;2023-03-14T06:28:04;10.10;99.90
23156;DHT22;11746;50.876;4.246;2023-03-14T06:30:29;10.10;99.90
23156;DHT22;11746;50.876;4.246;2023-03-14T06:32:55;10.00;99.90
23156;DHT22;11746;50.876;4.246;2023-03-14T06:35:23;10.00;99.90
23156;DHT22;11746;50.876;4.246;2023-03-14T06:37:49;10.00;99.90
23156;DHT22;11746;50.876;4.246;2023-03-14T06:40:15;9.30;99.90
23156;DHT22;11746;50.876;4.246;2023-03-14T06:42:46;9.00;99.90
23156;DHT22;11746;50.876;4.246;2023-03-14T06:45:12;8.90;99.90
23156;DHT22;11746;50.876;4.246;2023-03-14T06:47:38;8.70;99.90
23156;DHT22;11746;50.876;4.246;2023-03-14T06:50:05;8.50;99.90
23156;DHT22;11746;50.876;4.246;2023-03-14T06:52:31;8.30;99.90
23156;DHT22;11746;50.876;4.246;2023-03-14T06:54:57;8.20;99.90
23156;DHT22;11746;50.876;4.246;2023-03-14T06:57:25;8.10;99.90
23156;DHT22;11746;50.876;4.246;2023-03-14T06:59:51;8.00;99.90
23156;DHT22;11746;50.876;4.246;2023-03-14T07:02:16;7.80;99.90
23156;DHT22;11746;50.876;4.246;2023-03-14T07:04:42;7.70;99.90
23156;DHT22;11746;50.876;4.246;2023-03-14T07:07:08;7.50;99.90
23156;DHT22;11746;50.876;4.246;2023-03-14T07:09:34;7.50;99.90
23156;DHT22;11746;50.876;4.246;2023-03-14T07:12:00;7.40;99.90
23156;DHT22;11746;50.876;4.246;2023-03-14T07:14:26;7.40;99.90
23156;DHT22;11746;50.876;4.246;2023-03-14T07:16:57;7.40;99.90
23156;DHT22;11746;50.876;4.246;2023-03-14T07:19:25;7.40;99.90
23156;DHT22;11746;50.876;4.246;2023-03-14T07:21:53;7.40;99.90
23156;DHT22;11746;50.876;4.246;2023-03-14T07:24:21;7.40;99.90
23156;DHT22;11746;50.876;4.246;2023-03-14T07:26:46;7.50;99.90
23156;DHT22;11746;50.876;4.246;2023-03-14T07:29:12;7.50;99.90
23156;DHT22;11746;50.876;4.246;2023-03-14T07:31:38;7.40;99.90
23156;DHT22;11746;50.876;4.246;2023-03-14T07:34:05;7.40;99.90
23156;DHT22;11746;50.876;4.246;2023-03-14T07:36:31;7.40;99.90
23156;DHT22;11746;50.876;4.246;2023-03-14T07:38:59;7.40;99.90
23156;DHT22;11746;50.876;4.246;2023-03-14T07:41:25;7.40;99.90
23156;DHT22;11746;50.876;4.246;2023-03-14T07:43:50;7.40;99.90
23156;DHT22;11746;50.876;4.246;2023-03-14T07:46:16;7.30;99.90
23156;DHT22;11746;50.876;4.246;2023-03-14T07:48:42;7.40;99.90
23156;DHT22;11746;50.876;4.246;2023-03-14T07:51:08;7.30;99.90
23156;DHT22;11746;50.876;4.246;2023-03-14T07:53:34;7.40;99.90
23156;DHT22;11746;50.876;4.246;2023-03-14T07:56:00;7.40;99.90
23156;DHT22;11746;50.876;4.246;2023-03-14T07:58:27;7.40;99.90
23156;DHT22;11746;50.876;4.246;2023-03-14T08:00:53;7.40;99.90
23156;DHT22;11746;50.876;4.246;2023-03-14T08:03:19;7.40;99.90
23156;DHT22;11746;50.876;4.246;2023-03-14T08:05:48;7.50;99.90
23156;DHT22;11746;50.876;4.246;2023-03-14T08:08:14;7.50;99.90
23156;DHT22;11746;50.876;4.246;2023-03-14T08:10:40;7.50;99.90
23156;DHT22;11746;50.876;4.246;2023-03-14T08:13:05;7.50;99.90
23156;DHT22;11746;50.876;4.246;2023-03-14T08:15:31;7.50;99.90
23156;DHT22;11746;50.876;4.246;2023-03-14T08:17:57;7.40;99.90
23156;DHT22;11746;50.876;4.246;2023-03-14T08:20:26;7.40;99.90
23156;DHT22;11746;50.876;4.246;2023-03-14T08:22:51;7.20;99.90
23156;DHT22;11746;50.876;4.246;2023-03-14T08:25:17;7.20;99.90
23156;DHT22;11746;50.876;4.246;2023-03-14T08:27:43;7.00;99.90
23156;DHT22;11746;50.876;4.246;2023-03-14T08:30:11;7.10;99.90
23156;DHT22;11746;50.876;4.246;2023-03-14T08:32:37;7.00;99.90
23156;DHT22;11746;50.876;4.246;2023-03-14T08:35:04;7.00;99.90
23156;DHT22;11746;50.876;4.246;2023-03-14T08:37:33;7.00;99.90
23156;DHT22;11746;50.876;4.246;2023-03-14T08:40:02;6.80;99.90
23156;DHT22;11746;50.876;4.246;2023-03-14T08:42:35;6.80;99.90
23156;DHT22;11746;50.876;4.246;2023-03-14T08:45:01;6.80;99.90
23156;DHT22;11746;50.876;4.246;2023-03-14T08:47:29;6.70;99.90
23156;DHT22;11746;50.876;4.246;2023-03-14T08:49:55;6.70;99.90
23156;DHT22;11746;50.876;4.246;2023-03-14T08:52:20;6.70;99.90
23156;DHT22;11746;50.876;4.246;2023-03-14T08:54:46;6.60;99.90
23156;DHT22;11746;50.876;4.246;2023-03-14T08:57:12;6.70;99.90
23156;DHT22;11746;50.876;4.246;2023-03-14T08:59:38;6.70;99.90
23156;DHT22;11746;50.876;4.246;2023-03-14T09:02:04;6.70;99.90
23156;DHT22;11746;50.876;4.246;2023-03-14T09:04:33;6.70;99.90
23156;DHT22;11746;50.876;4.246;2023-03-14T09:06:59;6.70;99.90
23156;DHT22;11746;50.876;4.246;2023-03-14T09:09:25;6.70;99.90
23156;DHT22;11746;50.876;4.246;2023-03-14T09:11:53;6.60;99.90
23156;DHT22;11746;50.876;4.246;2023-03-14T09:14:21;6.50;99.90
23156;DHT22;11746;50.876;4.246;2023-03-14T09:16:47;6.50;99.90
23156;DHT22;11746;50.876;4.246;2023-03-14T09:19:13;6.50;99.90
23156;DHT22;11746;50.876;4.246;2023-03-14T09:21:38;6.50;99.90
23156;DHT22;11746;50.876;4.246;2023-03-14T09:24:04;6.60;99.90
23156;DHT22;11746;50.876;4.246;2023-03-14T09:26:30;6.70;99.90
23156;DHT22;11746;50.876;4.246;2023-03-14T09:28:56;6.70;99.90
23156;DHT22;11746;50.876;4.246;2023-03-14T09:31:22;6.60;99.90
23156;DHT22;11746;50.876;4.246;2023-03-14T09:33:50;6.60;99.90
23156;DHT22;11746;50.876;4.246;2023-03-14T09:36:16;6.70;99.90
23156;DHT22;11746;50.876;4.246;2023-03-14T09:38:41;6.70;99.90
23156;DHT22;11746;50.876;4.246;2023-03-14T09:41:17;6.70;99.90
23156;DHT22;11746;50.876;4.246;2023-03-14T09:43:45;6.70;99.90
23156;DHT22;11746;50.876;4.246;2023-03-14T09:46:12;6.70;99.90
23156;DHT22;11746;50.876;4.246;2023-03-14T09:48:40;6.70;99.90
23156;DHT22;11746;50.876;4.246;2023-03-14T09:51:16;6.60;99.90
23156;DHT22;11746;50.876;4.246;2023-03-14T09:53:47;6.60;99.90
23156;DHT22;11746;50.876;4.246;2023-03-14T09:56:17;6.60;99.90
23156;DHT22;11746;50.876;4.246;2023-03-14T09:58:47;6.70;99.90
23156;DHT22;11746;50.876;4.246;2023-03-14T10:01:20;6.70;99.90
23156;DHT22;11746;50.876;4.246;2023-03-14T10:03:56;6.70;99.90
23156;DHT22;11746;50.876;4.246;2023-03-14T10:06:30;6.80;99.90
23156;DHT22;11746;50.876;4.246;2023-03-14T10:08:56;6.80;99.90
23156;DHT22;11746;50.876;4.246;2023-03-14T10:11:23;6.80;99.90
23156;DHT22;11746;50.876;4.246;2023-03-14T10:16:33;6.80;99.90
23156;DHT22;11746;50.876;4.246;2023-03-14T10:19:04;6.70;99.90
23156;DHT22;11746;50.876;4.246;2023-03-14T10:21:36;6.70;99.90
23156;DHT22;11746;50.876;4.246;2023-03-14T10:26:58;6.70;99.90
23156;DHT22;11746;50.876;4.246;2023-03-14T10:29:29;6.70;99.90
23156;DHT22;11746;50.876;4.246;2023-03-14T10:31:59;6.50;99.90
23156;DHT22;11746;50.876;4.246;2023-03-14T10:34:35;6.50;99.90
23156;DHT22;11746;50.876;4.246;2023-03-14T10:37:24;6.60;99.90
23156;DHT22;11746;50.876;4.246;2023-03-14T10:40:00;6.50;99.90
23156;DHT22;11746;50.876;4.246;2023-03-14T10:42:32;6.40;99.90
23156;DHT22;11746;50.876;4.246;2023-03-14T10:45:30;6.40;99.90
23156;DHT22;11746;50.876;4.246;2023-03-14T10:47:59;6.40;99.90
23156;DHT22;11746;50.876;4.246;2023-03-14T10:50:33;6.30;99.90
23156;DHT22;11746;50.876;4.246;2023-03-14T10:53:02;6.30;99.90
23156;DHT22;11746;50.876;4.246;2023-03-14T10:55:44;6.30;99.90
23156;DHT22;11746;50.876;4.246;2023-03-14T10:58:39;6.30;99.90
23156;DHT22;11746;50.876;4.246;2023-03-14T11:09:42;6.10;99.90
23156;DHT22;11746;50.876;4.246;2023-03-14T11:15:09;5.80;99.90
23156;DHT22;11746;50.876;4.246;2023-03-14T11:23:38;5.60;99.90
23156;DHT22;11746;50.876;4.246;2023-03-14T11:26:30;5.70;99.90
23156;DHT22;11746;50.876;4.246;2023-03-14T11:28:57;5.60;99.90
23156;DHT22;11746;50.876;4.246;2023-03-14T11:31:28;5.60;99.90
23156;DHT22;11746;50.876;4.246;2023-03-14T11:36:41;5.40;99.90
23156;DHT22;11746;50.876;4.246;2023-03-14T11:39:15;5.40;99.90
23156;DHT22;11746;50.876;4.246;2023-03-14T11:42:11;5.40;99.90
23156;DHT22;11746;50.876;4.246;2023-03-14T11:44:39;5.50;99.90
23156;DHT22;11746;50.876;4.246;2023-03-14T11:47:19;5.40;99.90
23156;DHT22;11746;50.876;4.246;2023-03-14T11:49:51;5.40;99.90
23156;DHT22;11746;50.876;4.246;2023-03-14T11:52:29;5.50;99.90
23156;DHT22;11746;50.876;4.246;2023-03-14T11:55:09;5.50;99.90
23156;DHT22;11746;50.876;4.246;2023-03-14T11:57:36;5.40;99.90
23156;DHT22;11746;50.876;4.246;2023-03-14T12:02:59;5.50;99.90
23156;DHT22;11746;50.876;4.246;2023-03-14T12:10:49;5.60;99.90
23156;DHT22;11746;50.876;4.246;2023-03-14T12:13:19;5.60;99.90
23156;DHT22;11746;50.876;4.246;2023-03-14T12:15:59;5.60;99.90
23156;DHT22;11746;50.876;4.246;2023-03-14T12:20:57;5.60;99.90
23156;DHT22;11746;50.876;4.246;2023-03-14T12:23:27;5.60;99.90
23156;DHT22;11746;50.876;4.246;2023-03-14T12:28:38;5.60;99.90
23156;DHT22;11746;50.876;4.246;2023-03-14T12:42:03;5.60;99.90
23156;DHT22;11746;50.876;4.246;2023-03-14T12:46:57;5.90;99.90
23156;DHT22;11746;50.876;4.246;2023-03-14T12:49:32;6.10;99.90
23156;DHT22;11746;50.876;4.246;2023-03-14T12:51:58;6.20;99.90
23156;DHT22;11746;50.876;4.246;2023-03-14T12:59:56;6.50;99.90
23156;DHT22;11746;50.876;4.246;2023-03-14T13:02:26;6.70;99.90
23156;DHT22;11746;50.876;4.246;2023-03-14T13:05:09;6.70;99.90
23156;DHT22;11746;50.876;4.246;2023-03-14T13:10:30;6.40;99.90
23156;DHT22;11746;50.876;4.246;2023-03-14T13:13:02;6.20;99.90
23156;DHT22;11746;50.876;4.246;2023-03-14T13:15:42;6.10;99.90
23156;DHT22;11746;50.876;4.246;2023-03-14T13:20:59;6.10;99.90
23156;DHT22;11746;50.876;4.246;2023-03-14T13:23:29;6.00;99.90
23156;DHT22;11746;50.876;4.246;2023-03-14T13:25:56;6.20;99.90
23156;DHT22;11746;50.876;4.246;2023-03-14T13:28:25;6.10;99.90
23156;DHT22;11746;50.876;4.246;2023-03-14T13:30:57;6.20;99.90
23156;DHT22;11746;50.876;4.246;2023-03-14T13:33:23;6.30;99.90
23156;DHT22;11746;50.876;4.246;2023-03-14T13:38:27;6.60;99.90
23156;DHT22;11746;50.876;4.246;2023-03-14T13:40:58;6.50;99.90
23156;DHT22;11746;50.876;4.246;2023-03-14T13:43:43;6.20;99.90
23156;DHT22;11746;50.876;4.246;2023-03-14T13:46:15;6.20;99.90
23156;DHT22;11746;50.876;4.246;2023-03-14T13:48:56;6.20;99.90
23156;DHT22;11746;50.876;4.246;2023-03-14T13:51:23;6.30;99.90
23156;DHT22;11746;50.876;4.246;2023-03-14T13:53:54;6.40;99.90
23156;DHT22;11746;50.876;4.246;2023-03-14T13:56:23;6.50;99.90
23156;DHT22;11746;50.876;4.246;2023-03-14T13:58:49;6.60;99.90
23156;DHT22;11746;50.876;4.246;2023-03-14T14:03:58;6.90;99.90
23156;DHT22;11746;50.876;4.246;2023-03-14T14:06:36;7.00;99.90
23156;DHT22;11746;50.876;4.246;2023-03-14T14:12:01;7.30;99.90
23156;DHT22;11746;50.876;4.246;2023-03-14T14:14:38;7.30;99.90
23156;DHT22;11746;50.876;4.246;2023-03-14T14:17:11;7.30;99.90
23156;DHT22;11746;50.876;4.246;2023-03-14T14:19:39;7.30;99.90
23156;DHT22;11746;50.876;4.246;2023-03-14T14:22:08;7.30;99.90
23156;DHT22;11746;50.876;4.246;2023-03-14T14:24:36;7.40;99.90
23156;DHT22;11746;50.876;4.246;2023-03-14T14:29:37;7.30;99.90
23156;DHT22;11746;50.876;4.246;2023-03-14T14:32:13;7.30;99.90
23156;DHT22;11746;50.876;4.246;2023-03-14T14:34:55;7.10;99.90
23156;DHT22;11746;50.876;4.246;2023-03-14T14:39:54;6.90;99.90
23156;DHT22;11746;50.876;4.246;2023-03-14T14:42:24;6.70;99.90
23156;DHT22;11746;50.876;4.246;2023-03-14T14:44:53;6.40;99.90
23156;DHT22;11746;50.876;4.246;2023-03-14T14:47:28;6.20;99.90
23156;DHT22;11746;50.876;4.246;2023-03-14T14:49:59;5.90;99.90
23156;DHT22;11746;50.876;4.246;2023-03-14T14:52:43;5.80;99.90
23156;DHT22;11746;50.876;4.246;2023-03-14T14:55:19;5.60;99.90
23156;DHT22;11746;50.876;4.246;2023-03-14T14:57:51;5.60;99.90
23156;DHT22;11746;50.876;4.246;2023-03-14T15:00:23;5.70;99.90
23156;DHT22;11746;50.876;4.246;2023-03-14T15:02:51;5.80;99.90
23156;DHT22;11746;50.876;4.246;2023-03-14T15:05:23;5.80;99.90
23156;DHT22;11746;50.876;4.246;2023-03-14T15:07:51;5.90;99.90
23156;DHT22;11746;50.876;4.246;2023-03-14T15:10:24;6.00;99.90
23156;DHT22;11746;50.876;4.246;2023-03-14T15:12:55;6.20;99.90
23156;DHT22;11746;50.876;4.246;2023-03-14T15:15:21;6.30;99.90
23156;DHT22;11746;50.876;4.246;2023-03-14T15:17:46;6.40;99.90
23156;DHT22;11746;50.876;4.246;2023-03-14T15:20:14;6.50;99.90
23156;DHT22;11746;50.876;4.246;2023-03-14T15:22:41;6.60;99.90
23156;DHT22;11746;50.876;4.246;2023-03-14T15:25:07;6.60;99.90
23156;DHT22;11746;50.876;4.246;2023-03-14T15:27:33;6.80;99.90
23156;DHT22;11746;50.876;4.246;2023-03-14T15:29:59;6.90;99.90
23156;DHT22;11746;50.876;4.246;2023-03-14T15:32:26;7.00;99.90
23156;DHT22;11746;50.876;4.246;2023-03-14T15:34:55;6.90;99.90
23156;DHT22;11746;50.876;4.246;2023-03-14T15:37:21;6.80;99.90
23156;DHT22;11746;50.876;4.246;2023-03-14T15:39:46;6.60;99.90
23156;DHT22;11746;50.876;4.246;2023-03-14T15:42:12;6.50;99.90
23156;DHT22;11746;50.876;4.246;2023-03-14T15:44:38;6.50;99.90
23156;DHT22;11746;50.876;4.246;2023-03-14T15:47:08;6.40;99.90
23156;DHT22;11746;50.876;4.246;2023-03-14T15:49:33;6.40;99.90
23156;DHT22;11746;50.876;4.246;2023-03-14T15:52:00;6.30;99.90
23156;DHT22;11746;50.876;4.246;2023-03-14T15:54:26;6.40;99.90
23156;DHT22;11746;50.876;4.246;2023-03-14T15:56:57;6.50;99.90
23156;DHT22;11746;50.876;4.246;2023-03-14T15:59:25;6.40;99.90
23156;DHT22;11746;50.876;4.246;2023-03-14T16:01:51;6.40;99.90
23156;DHT22;11746;50.876;4.246;2023-03-14T16:04:17;6.40;99.90
23156;DHT22;11746;50.876;4.246;2023-03-14T16:06:45;6.50;99.90
23156;DHT22;11746;50.876;4.246;2023-03-14T16:09:11;6.50;99.90
23156;DHT22;11746;50.876;4.246;2023-03-14T16:11:44;6.50;99.90
23156;DHT22;11746;50.876;4.246;2023-03-14T16:14:14;6.50;99.90
23156;DHT22;11746;50.876;4.246;2023-03-14T16:16:39;6.50;99.90
23156;DHT22;11746;50.876;4.246;2023-03-14T16:19:06;6.40;99.90
23156;DHT22;11746;50.876;4.246;2023-03-14T16:21:40;6.50;99.90
23156;DHT22;11746;50.876;4.246;2023-03-14T16:24:10;6.60;99.90
23156;DHT22;11746;50.876;4.246;2023-03-14T16:26:40;6.60;99.90
23156;DHT22;11746;50.876;4.246;2023-03-14T16:29:09;6.50;99.90
23156;DHT22;11746;50.876;4.246;2023-03-14T16:31:35;6.50;99.90
23156;DHT22;11746;50.876;4.246;2023-03-14T16:34:08;6.60;99.90
23156;DHT22;11746;50.876;4.246;2023-03-14T16:36:34;6.70;99.90
23156;DHT22;11746;50.876;4.246;2023-03-14T16:38:59;6.80;99.90
23156;DHT22;11746;50.876;4.246;2023-03-14T16:41:25;6.90;99.90
23156;DHT22;11746;50.876;4.246;2023-03-14T16:43:58;6.80;99.90
23156;DHT22;11746;50.876;4.246;2023-03-14T16:46:24;6.90;99.90
23156;DHT22;11746;50.876;4.246;2023-03-14T16:48:53;6.90;99.90
23156;DHT22;11746;50.876;4.246;2023-03-14T16:51:19;6.90;99.90
23156;DHT22;11746;50.876;4.246;2023-03-14T16:53:46;6.90;99.90
23156;DHT22;11746;50.876;4.246;2023-03-14T16:56:16;6.80;99.90
23156;DHT22;11746;50.876;4.246;2023-03-14T16:58:42;6.70;99.90
23156;DHT22;11746;50.876;4.246;2023-03-14T17:01:11;6.70;99.90
23156;DHT22;11746;50.876;4.246;2023-03-14T17:03:44;6.60;99.90
23156;DHT22;11746;50.876;4.246;2023-03-14T17:06:12;6.70;99.90
23156;DHT22;11746;50.876;4.246;2023-03-14T17:08:38;6.60;99.90
23156;DHT22;11746;50.876;4.246;2023-03-14T17:11:04;6.50;99.90
23156;DHT22;11746;50.876;4.246;2023-03-14T17:13:30;6.40;99.90
23156;DHT22;11746;50.876;4.246;2023-03-14T17:15:57;6.40;99.90
23156;DHT22;11746;50.876;4.246;2023-03-14T17:18:27;6.30;99.90
23156;DHT22;11746;50.876;4.246;2023-03-14T17:20:55;6.40;99.90